sensor_id;sensor_type;location;lat;lon;timestamp;P1;durP1;ratioP1;P2;durP2;ratioP2
42144;SDS011;27813;43.516;11.890;2023-05-10T04:32:12;44.65;;;13.57;;
42144;SDS011;27813;43.516;11.890;2023-05-10T04:36:17;55.28;;;14.32;;
42144;SDS011;27813;43.516;11.890;2023-05-10T04:40:21;50.42;;;13.75;;
42144;SDS011;27813;43.516;11.890;2023-05-10T04:44:26;46.65;;;13.30;;
42144;SDS011;27813;43.516;11.890;2023-05-10T04:48:31;43.83;;;14.40;;
42144;SDS011;27813;43.516;11.890;2023-05-10T04:52:35;37.63;;;13.23;;
42144;SDS011;27813;43.516;11.890;2023-05-10T04:56:39;50.53;;;13.20;;
42144;SDS011;27813;43.516;11.890;2023-05-10T05:00:47;46.60;;;12.90;;
42144;SDS011;27813;43.516;11.890;2023-05-10T05:04:55;47.60;;;14.07;;
42144;SDS011;27813;43.516;11.890;2023-05-10T05:09:01;46.90;;;14.45;;
42144;SDS011;27813;43.516;11.890;2023-05-10T05:13:05;42.10;;;14.90;;
42144;SDS011;27813;43.516;11.890;2023-05-10T05:17:09;50.10;;;14.45;;
42144;SDS011;27813;43.516;11.890;2023-05-10T05:21:14;50.97;;;14.50;;
42144;SDS011;27813;43.516;11.890;2023-05-10T05:25:21;56.60;;;15.38;;
42144;SDS011;27813;43.516;11.890;2023-05-10T05:29:27;53.65;;;15.20;;
42144;SDS011;27813;43.516;11.890;2023-05-10T05:33:31;66.63;;;16.15;;
42144;SDS011;27813;43.516;11.890;2023-05-10T05:37:36;53.63;;;14.95;;
42144;SDS011;27813;43.516;11.890;2023-05-10T05:41:40;45.22;;;13.00;;
42144;SDS011;27813;43.516;11.890;2023-05-10T05:49:48;47.93;;;13.90;;
42144;SDS011;27813;43.516;11.890;2023-05-10T05:53:52;57.83;;;14.07;;
42144;SDS011;27813;43.516;11.890;2023-05-10T05:57:57;61.58;;;15.60;;
42144;SDS011;27813;43.516;11.890;2023-05-10T06:02:01;32.55;;;12.63;;
42144;SDS011;27813;43.516;11.890;2023-05-10T06:06:05;49.85;;;16.27;;
42144;SDS011;27813;43.516;11.890;2023-05-10T06:10:10;80.72;;;17.52;;
42144;SDS011;27813;43.516;11.890;2023-05-10T06:14:14;75.78;;;19.33;;
42144;SDS011;27813;43.516;11.890;2023-05-10T06:18:18;62.28;;;18.90;;
42144;SDS011;27813;43.516;11.890;2023-05-10T06:22:22;66.18;;;17.73;;
42144;SDS011;27813;43.516;11.890;2023-05-10T06:26:26;57.08;;;18.63;;
42144;SDS011;27813;43.516;11.890;2023-05-10T06:30:30;108.72;;;23.05;;
42144;SDS011;27813;43.516;11.890;2023-05-10T06:34:34;54.45;;;18.48;;
42144;SDS011;27813;43.516;11.890;2023-05-10T06:38:39;45.10;;;16.73;;
42144;SDS011;27813;43.516;11.890;2023-05-10T06:42:43;46.83;;;16.17;;
42144;SDS011;27813;43.516;11.890;2023-05-10T06:46:48;37.10;;;14.50;;
42144;SDS011;27813;43.516;11.890;2023-05-10T06:50:53;31.52;;;13.75;;
42144;SDS011;27813;43.516;11.890;2023-05-10T06:54:57;48.00;;;15.13;;
42144;SDS011;27813;43.516;11.890;2023-05-10T06:59:01;36.83;;;13.68;;
42144;SDS011;27813;43.516;11.890;2023-05-10T07:03:06;38.00;;;15.45;;
42144;SDS011;27813;43.516;11.890;2023-05-10T07:07:10;50.63;;;17.45;;
42144;SDS011;27813;43.516;11.890;2023-05-10T07:11:15;42.58;;;15.48;;
42144;SDS011;27813;43.516;11.890;2023-05-10T07:15:20;30.95;;;14.73;;
42144;SDS011;27813;43.516;11.890;2023-05-10T07:19:24;36.33;;;14.20;;
42144;SDS011;27813;43.516;11.890;2023-05-10T07:23:29;24.15;;;12.25;;
42144;SDS011;27813;43.516;11.890;2023-05-10T07:27:33;51.67;;;16.60;;
42144;SDS011;27813;43.516;11.890;2023-05-10T07:31:38;50.25;;;18.13;;
42144;SDS011;27813;43.516;11.890;2023-05-10T07:35:45;44.53;;;15.38;;
42144;SDS011;27813;43.516;11.890;2023-05-10T07:39:50;31.65;;;12.18;;
42144;SDS011;27813;43.516;11.890;2023-05-10T07:43:54;31.05;;;12.63;;
42144;SDS011;27813;43.516;11.890;2023-05-10T07:47:59;32.85;;;13.77;;
42144;SDS011;27813;43.516;11.890;2023-05-10T07:52:03;30.05;;;12.43;;
42144;SDS011;27813;43.516;11.890;2023-05-10T08:00:35;30.95;;;13.90;;
42144;SDS011;27813;43.516;11.890;2023-05-10T08:04:42;23.02;;;12.30;;
42144;SDS011;27813;43.516;11.890;2023-05-10T08:08:47;18.10;;;9.80;;
42144;SDS011;27813;43.516;11.890;2023-05-10T08:12:53;17.40;;;9.10;;
42144;SDS011;27813;43.516;11.890;2023-05-10T08:16:58;14.95;;;8.18;;
42144;SDS011;27813;43.516;11.890;2023-05-10T08:21:02;9.75;;;6.60;;
42144;SDS011;27813;43.516;11.890;2023-05-10T08:25:07;13.20;;;6.75;;
42144;SDS011;27813;43.516;11.890;2023-05-10T08:29:12;9.43;;;5.25;;
42144;SDS011;27813;43.516;11.890;2023-05-10T08:33:19;6.13;;;4.40;;
42144;SDS011;27813;43.516;11.890;2023-05-10T08:37:23;5.47;;;4.75;;
42144;SDS011;27813;43.516;11.890;2023-05-10T08:41:28;5.53;;;4.38;;
42144;SDS011;27813;43.516;11.890;2023-05-10T08:45:37;4.10;;;3.42;;
42144;SDS011;27813;43.516;11.890;2023-05-10T08:49:47;3.45;;;2.97;;
42144;SDS011;27813;43.516;11.890;2023-05-10T08:53:54;4.53;;;3.13;;
42144;SDS011;27813;43.516;11.890;2023-05-10T08:57:59;3.70;;;3.08;;
42144;SDS011;27813;43.516;11.890;2023-05-10T09:02:04;4.40;;;2.92;;
42144;SDS011;27813;43.516;11.890;2023-05-10T09:06:09;3.15;;;2.17;;
42144;SDS011;27813;43.516;11.890;2023-05-10T09:10:16;2.70;;;2.10;;
42144;SDS011;27813;43.516;11.890;2023-05-10T09:14:23;2.75;;;2.03;;
42144;SDS011;27813;43.516;11.890;2023-05-10T09:18:29;3.00;;;2.17;;
42144;SDS011;27813;43.516;11.890;2023-05-10T09:22:34;3.40;;;3.08;;
42144;SDS011;27813;43.516;11.890;2023-05-10T09:26:48;2.90;;;2.35;;
42144;SDS011;27813;43.516;11.890;2023-05-10T09:30:52;3.13;;;2.10;;
42144;SDS011;27813;43.516;11.890;2023-05-10T09:35:05;3.28;;;2.33;;
42144;SDS011;27813;43.516;11.890;2023-05-10T09:39:21;5.30;;;2.50;;
42144;SDS011;27813;43.516;11.890;2023-05-10T09:43:38;6.35;;;3.03;;
42144;SDS011;27813;43.516;11.890;2023-05-10T09:47:43;4.00;;;2.80;;
42144;SDS011;27813;43.516;11.890;2023-05-10T09:52:05;3.00;;;2.42;;
42144;SDS011;27813;43.516;11.890;2023-05-10T09:56:11;2.70;;;2.38;;
42144;SDS011;27813;43.516;11.890;2023-05-10T10:00:18;2.80;;;1.70;;
42144;SDS011;27813;43.516;11.890;2023-05-10T10:04:24;2.85;;;2.20;;
42144;SDS011;27813;43.516;11.890;2023-05-10T10:08:34;2.08;;;1.70;;
42144;SDS011;27813;43.516;11.890;2023-05-10T10:12:39;3.28;;;2.22;;
42144;SDS011;27813;43.516;11.890;2023-05-10T10:16:45;4.60;;;1.67;;
42144;SDS011;27813;43.516;11.890;2023-05-10T10:21:09;2.00;;;1.63;;
42144;SDS011;27813;43.516;11.890;2023-05-10T10:25:14;2.83;;;1.50;;
42144;SDS011;27813;43.516;11.890;2023-05-10T10:29:43;5.72;;;1.90;;
42144;SDS011;27813;43.516;11.890;2023-05-10T10:34:06;4.40;;;1.63;;
42144;SDS011;27813;43.516;11.890;2023-05-10T10:38:13;2.40;;;2.10;;
42144;SDS011;27813;43.516;11.890;2023-05-10T10:47:01;3.63;;;2.23;;
42144;SDS011;27813;43.516;11.890;2023-05-10T10:51:15;3.20;;;1.75;;
42144;SDS011;27813;43.516;11.890;2023-05-10T10:55:20;3.35;;;1.70;;
42144;SDS011;27813;43.516;11.890;2023-05-10T10:59:30;3.67;;;1.70;;
42144;SDS011;27813;43.516;11.890;2023-05-10T11:03:34;2.47;;;1.60;;
42144;SDS011;27813;43.516;11.890;2023-05-10T11:07:50;2.97;;;1.60;;
42144;SDS011;27813;43.516;11.890;2023-05-10T11:11:56;5.32;;;2.03;;
42144;SDS011;27813;43.516;11.890;2023-05-10T11:16:43;4.55;;;1.67;;
42144;SDS011;27813;43.516;11.890;2023-05-10T11:20:51;5.18;;;2.20;;
42144;SDS011;27813;43.516;11.890;2023-05-10T11:25:08;3.40;;;2.00;;
42144;SDS011;27813;43.516;11.890;2023-05-10T11:29:13;3.00;;;1.80;;
42144;SDS011;27813;43.516;11.890;2023-05-10T11:33:17;9.20;;;2.30;;
42144;SDS011;27813;43.516;11.890;2023-05-10T11:37:22;10.70;;;2.00;;
42144;SDS011;27813;43.516;11.890;2023-05-10T11:41:27;8.93;;;2.30;;
42144;SDS011;27813;43.516;11.890;2023-05-10T11:45:34;5.40;;;2.00;;
42144;SDS011;27813;43.516;11.890;2023-05-10T11:49:39;6.05;;;1.98;;
42144;SDS011;27813;43.516;11.890;2023-05-10T11:53:47;10.35;;;2.10;;
42144;SDS011;27813;43.516;11.890;2023-05-10T11:57:54;3.85;;;1.73;;
42144;SDS011;27813;43.516;11.890;2023-05-10T12:01:58;4.53;;;2.03;;
42144;SDS011;27813;43.516;11.890;2023-05-10T12:06:03;7.75;;;2.42;;
42144;SDS011;27813;43.516;11.890;2023-05-10T12:10:08;4.15;;;2.28;;
42144;SDS011;27813;43.516;11.890;2023-05-10T12:14:16;6.70;;;2.80;;
42144;SDS011;27813;43.516;11.890;2023-05-10T12:18:26;4.95;;;2.00;;
42144;SDS011;27813;43.516;11.890;2023-05-10T12:22:33;5.38;;;2.17;;
42144;SDS011;27813;43.516;11.890;2023-05-10T12:26:38;10.38;;;2.60;;
42144;SDS011;27813;43.516;11.890;2023-05-10T12:30:42;7.40;;;2.35;;
42144;SDS011;27813;43.516;11.890;2023-05-10T12:34:47;4.45;;;2.20;;
42144;SDS011;27813;43.516;11.890;2023-05-10T12:39:00;3.78;;;2.00;;
42144;SDS011;27813;43.516;11.890;2023-05-10T12:43:06;7.35;;;2.22;;
42144;SDS011;27813;43.516;11.890;2023-05-10T12:47:11;3.00;;;1.80;;
42144;SDS011;27813;43.516;11.890;2023-05-10T12:51:15;16.55;;;2.88;;
42144;SDS011;27813;43.516;11.890;2023-05-10T12:55:25;5.45;;;2.35;;
42144;SDS011;27813;43.516;11.890;2023-05-10T12:59:29;7.32;;;2.90;;
42144;SDS011;27813;43.516;11.890;2023-05-10T13:03:36;7.72;;;2.47;;
42144;SDS011;27813;43.516;11.890;2023-05-10T13:07:40;10.07;;;2.88;;
42144;SDS011;27813;43.516;11.890;2023-05-10T13:11:46;7.32;;;2.72;;
42144;SDS011;27813;43.516;11.890;2023-05-10T13:15:51;28.52;;;2.42;;
42144;SDS011;27813;43.516;11.890;2023-05-10T13:19:55;11.38;;;2.67;;
42144;SDS011;27813;43.516;11.890;2023-05-10T13:24:00;6.75;;;2.30;;
42144;SDS011;27813;43.516;11.890;2023-05-10T13:28:06;4.10;;;2.10;;
42144;SDS011;27813;43.516;11.890;2023-05-10T13:32:10;5.05;;;2.30;;
42144;SDS011;27813;43.516;11.890;2023-05-10T13:36:17;7.93;;;2.17;;
42144;SDS011;27813;43.516;11.890;2023-05-10T13:40:21;3.25;;;2.00;;
42144;SDS011;27813;43.516;11.890;2023-05-10T13:44:26;4.60;;;2.20;;
42144;SDS011;27813;43.516;11.890;2023-05-10T13:48:30;6.07;;;2.80;;
42144;SDS011;27813;43.516;11.890;2023-05-10T13:52:35;3.53;;;2.15;;
42144;SDS011;27813;43.516;11.890;2023-05-10T13:56:42;5.75;;;2.42;;
42144;SDS011;27813;43.516;11.890;2023-05-10T14:00:47;6.25;;;2.72;;
42144;SDS011;27813;43.516;11.890;2023-05-10T14:04:52;5.07;;;2.58;;
42144;SDS011;27813;43.516;11.890;2023-05-10T14:08:56;6.85;;;3.03;;
42144;SDS011;27813;43.516;11.890;2023-05-10T14:13:00;5.78;;;2.50;;
42144;SDS011;27813;43.516;11.890;2023-05-10T14:17:04;6.93;;;2.67;;
42144;SDS011;27813;43.516;11.890;2023-05-10T14:21:08;8.45;;;2.63;;
42144;SDS011;27813;43.516;11.890;2023-05-10T14:25:13;4.78;;;2.25;;
42144;SDS011;27813;43.516;11.890;2023-05-10T14:29:18;3.58;;;1.95;;
42144;SDS011;27813;43.516;11.890;2023-05-10T14:33:23;3.03;;;1.73;;
42144;SDS011;27813;43.516;11.890;2023-05-10T14:37:30;2.95;;;1.52;;
42144;SDS011;27813;43.516;11.890;2023-05-10T14:41:34;2.80;;;1.90;;
42144;SDS011;27813;43.516;11.890;2023-05-10T14:45:41;5.00;;;1.48;;
42144;SDS011;27813;43.516;11.890;2023-05-10T14:49:46;12.00;;;1.80;;
42144;SDS011;27813;43.516;11.890;2023-05-10T14:53:50;3.90;;;1.77;;
42144;SDS011;27813;43.516;11.890;2023-05-10T14:57:54;6.15;;;1.90;;
42144;SDS011;27813;43.516;11.890;2023-05-10T15:01:58;26.73;;;3.63;;
42144;SDS011;27813;43.516;11.890;2023-05-10T15:06:13;5.30;;;1.80;;
42144;SDS011;27813;43.516;11.890;2023-05-10T15:10:19;11.40;;;2.25;;
42144;SDS011;27813;43.516;11.890;2023-05-10T15:14:23;27.27;;;3.50;;
42144;SDS011;27813;43.516;11.890;2023-05-10T15:18:27;22.90;;;2.40;;
42144;SDS011;27813;43.516;11.890;2023-05-10T15:22:31;41.78;;;3.50;;
42144;SDS011;27813;43.516;11.890;2023-05-10T15:26:36;43.67;;;5.38;;
42144;SDS011;27813;43.516;11.890;2023-05-10T15:30:40;11.02;;;2.17;;
42144;SDS011;27813;43.516;11.890;2023-05-10T15:34:44;5.90;;;2.35;;
42144;SDS011;27813;43.516;11.890;2023-05-10T15:42:52;4.50;;;2.57;;
42144;SDS011;27813;43.516;11.890;2023-05-10T15:50:59;13.80;;;4.07;;
42144;SDS011;27813;43.516;11.890;2023-05-10T15:55:04;6.47;;;2.60;;
42144;SDS011;27813;43.516;11.890;2023-05-10T15:59:15;3.90;;;2.08;;
42144;SDS011;27813;43.516;11.890;2023-05-10T16:03:19;4.22;;;2.03;;
42144;SDS011;27813;43.516;11.890;2023-05-10T16:07:23;10.02;;;2.72;;
42144;SDS011;27813;43.516;11.890;2023-05-10T16:11:27;45.42;;;4.82;;
42144;SDS011;27813;43.516;11.890;2023-05-10T16:15:31;23.30;;;4.88;;
42144;SDS011;27813;43.516;11.890;2023-05-10T16:19:36;16.67;;;2.80;;
42144;SDS011;27813;43.516;11.890;2023-05-10T16:23:40;8.60;;;2.58;;
42144;SDS011;27813;43.516;11.890;2023-05-10T16:27:45;11.85;;;2.85;;
42144;SDS011;27813;43.516;11.890;2023-05-10T16:31:50;8.20;;;2.53;;
42144;SDS011;27813;43.516;11.890;2023-05-10T16:35:54;8.65;;;2.80;;
42144;SDS011;27813;43.516;11.890;2023-05-10T16:39:58;18.42;;;2.90;;
42144;SDS011;27813;43.516;11.890;2023-05-10T16:44:02;8.38;;;3.13;;
42144;SDS011;27813;43.516;11.890;2023-05-10T16:48:06;10.45;;;2.60;;
42144;SDS011;27813;43.516;11.890;2023-05-10T16:52:11;14.15;;;2.92;;
42144;SDS011;27813;43.516;11.890;2023-05-10T16:56:16;10.10;;;2.72;;
42144;SDS011;27813;43.516;11.890;2023-05-10T17:00:20;7.95;;;3.58;;
42144;SDS011;27813;43.516;11.890;2023-05-10T17:04:25;4.38;;;1.55;;
42144;SDS011;27813;43.516;11.890;2023-05-10T17:08:29;3.53;;;1.10;;
42144;SDS011;27813;43.516;11.890;2023-05-10T17:12:33;2.80;;;0.98;;
42144;SDS011;27813;43.516;11.890;2023-05-10T17:16:38;3.28;;;1.00;;
42144;SDS011;27813;43.516;11.890;2023-05-10T17:20:42;3.13;;;1.50;;
42144;SDS011;27813;43.516;11.890;2023-05-10T17:24:47;3.65;;;1.63;;
42144;SDS011;27813;43.516;11.890;2023-05-10T17:28:52;4.18;;;1.40;;
42144;SDS011;27813;43.516;11.890;2023-05-10T17:32:59;14.25;;;2.60;;
42144;SDS011;27813;43.516;11.890;2023-05-10T17:37:04;5.60;;;2.40;;
42144;SDS011;27813;43.516;11.890;2023-05-10T17:41:08;6.45;;;2.42;;
42144;SDS011;27813;43.516;11.890;2023-05-10T17:45:12;4.55;;;2.30;;
42144;SDS011;27813;43.516;11.890;2023-05-10T17:49:17;5.30;;;2.28;;
42144;SDS011;27813;43.516;11.890;2023-05-10T17:57:25;2.85;;;1.38;;
42144;SDS011;27813;43.516;11.890;2023-05-10T18:01:30;4.65;;;1.52;;
42144;SDS011;27813;43.516;11.890;2023-05-10T18:05:35;0.90;;;0.60;;
42144;SDS011;27813;43.516;11.890;2023-05-10T18:09:41;1.80;;;0.52;;
42144;SDS011;27813;43.516;11.890;2023-05-10T18:13:45;1.00;;;0.43;;
42144;SDS011;27813;43.516;11.890;2023-05-10T18:17:51;1.63;;;0.50;;
42144;SDS011;27813;43.516;11.890;2023-05-10T18:21:55;1.38;;;0.50;;
42144;SDS011;27813;43.516;11.890;2023-05-10T18:26:00;0.90;;;0.60;;
42144;SDS011;27813;43.516;11.890;2023-05-10T18:30:05;1.02;;;0.50;;
42144;SDS011;27813;43.516;11.890;2023-05-10T18:34:12;2.53;;;0.80;;
42144;SDS011;27813;43.516;11.890;2023-05-10T18:38:18;2.22;;;0.77;;
42144;SDS011;27813;43.516;11.890;2023-05-10T18:42:24;1.08;;;0.70;;
42144;SDS011;27813;43.516;11.890;2023-05-10T18:46:29;0.70;;;0.65;;
42144;SDS011;27813;43.516;11.890;2023-05-10T18:50:37;1.58;;;0.50;;
42144;SDS011;27813;43.516;11.890;2023-05-10T18:54:45;1.92;;;0.50;;
42144;SDS011;27813;43.516;11.890;2023-05-10T18:58:50;1.40;;;0.60;;
42144;SDS011;27813;43.516;11.890;2023-05-10T19:02:55;0.60;;;0.50;;
42144;SDS011;27813;43.516;11.890;2023-05-10T19:07:01;2.60;;;0.75;;
42144;SDS011;27813;43.516;11.890;2023-05-10T19:11:07;2.67;;;1.08;;
42144;SDS011;27813;43.516;11.890;2023-05-10T19:15:11;2.55;;;1.00;;
42144;SDS011;27813;43.516;11.890;2023-05-10T19:19:15;1.42;;;0.70;;
42144;SDS011;27813;43.516;11.890;2023-05-10T19:23:22;1.30;;;0.60;;
42144;SDS011;27813;43.516;11.890;2023-05-10T19:27:31;2.40;;;0.57;;
42144;SDS011;27813;43.516;11.890;2023-05-10T19:31:36;0.63;;;0.40;;
42144;SDS011;27813;43.516;11.890;2023-05-10T19:35:43;0.95;;;0.35;;
42144;SDS011;27813;43.516;11.890;2023-05-10T19:39:49;12.57;;;0.88;;
42144;SDS011;27813;43.516;11.890;2023-05-10T19:43:55;0.85;;;0.35;;
42144;SDS011;27813;43.516;11.890;2023-05-10T19:48:03;4.70;;;0.55;;
42144;SDS011;27813;43.516;11.890;2023-05-10T19:52:10;4.88;;;0.50;;
42144;SDS011;27813;43.516;11.890;2023-05-10T19:56:16;2.97;;;0.55;;
42144;SDS011;27813;43.516;11.890;2023-05-10T20:00:23;0.57;;;0.47;;
42144;SDS011;27813;43.516;11.890;2023-05-10T20:04:40;2.33;;;0.60;;
42144;SDS011;27813;43.516;11.890;2023-05-10T20:08:50;1.65;;;0.82;;
42144;SDS011;27813;43.516;11.890;2023-05-10T20:12:59;2.45;;;0.98;;
42144;SDS011;27813;43.516;11.890;2023-05-10T20:17:09;2.35;;;1.05;;
42144;SDS011;27813;43.516;11.890;2023-05-10T20:21:15;3.92;;;1.25;;
42144;SDS011;27813;43.516;11.890;2023-05-10T20:25:24;4.05;;;1.85;;
42144;SDS011;27813;43.516;11.890;2023-05-10T20:29:31;3.28;;;1.60;;
42144;SDS011;27813;43.516;11.890;2023-05-10T20:33:39;5.55;;;1.80;;
42144;SDS011;27813;43.516;11.890;2023-05-10T20:37:45;2.50;;;1.40;;
42144;SDS011;27813;43.516;11.890;2023-05-10T20:41:51;4.82;;;1.90;;
42144;SDS011;27813;43.516;11.890;2023-05-10T20:45:57;3.95;;;1.70;;
42144;SDS011;27813;43.516;11.890;2023-05-10T20:50:09;3.83;;;1.40;;
42144;SDS011;27813;43.516;11.890;2023-05-10T20:54:17;2.90;;;1.52;;
42144;SDS011;27813;43.516;11.890;2023-05-10T20:58:23;3.90;;;1.80;;
42144;SDS011;27813;43.516;11.890;2023-05-10T21:02:27;6.30;;;1.60;;
42144;SDS011;27813;43.516;11.890;2023-05-10T21:06:35;4.75;;;1.80;;
42144;SDS011;27813;43.516;11.890;2023-05-10T21:10:41;3.42;;;1.35;;
42144;SDS011;27813;43.516;11.890;2023-05-10T21:14:45;4.05;;;1.80;;
42144;SDS011;27813;43.516;11.890;2023-05-10T21:19:32;4.05;;;1.70;;
42144;SDS011;27813;43.516;11.890;2023-05-10T21:23:37;4.07;;;1.55;;
42144;SDS011;27813;43.516;11.890;2023-05-10T21:27:41;2.63;;;1.40;;
42144;SDS011;27813;43.516;11.890;2023-05-10T21:31:46;4.25;;;1.20;;
42144;SDS011;27813;43.516;11.890;2023-05-10T21:35:51;2.13;;;1.23;;
42144;SDS011;27813;43.516;11.890;2023-05-10T21:40:01;5.45;;;1.30;;
42144;SDS011;27813;43.516;11.890;2023-05-10T21:44:07;4.78;;;1.13;;
42144;SDS011;27813;43.516;11.890;2023-05-10T21:48:11;2.28;;;1.13;;
42144;SDS011;27813;43.516;11.890;2023-05-10T21:52:18;2.53;;;1.08;;
42144;SDS011;27813;43.516;11.890;2023-05-10T21:56:23;1.95;;;0.82;;
42144;SDS011;27813;43.516;11.890;2023-05-10T22:00:30;2.30;;;1.00;;
42144;SDS011;27813;43.516;11.890;2023-05-10T22:04:40;3.63;;;0.98;;
42144;SDS011;27813;43.516;11.890;2023-05-10T22:08:52;4.07;;;1.00;;
42144;SDS011;27813;43.516;11.890;2023-05-10T22:13:04;1.75;;;1.02;;
42144;SDS011;27813;43.516;11.890;2023-05-10T22:17:14;2.00;;;1.08;;
42144;SDS011;27813;43.516;11.890;2023-05-10T22:21:19;3.55;;;1.02;;
42144;SDS011;27813;43.516;11.890;2023-05-10T22:25:26;2.42;;;1.17;;
42144;SDS011;27813;43.516;11.890;2023-05-10T22:29:32;3.58;;;1.13;;
42144;SDS011;27813;43.516;11.890;2023-05-10T22:33:38;3.83;;;1.17;;
42144;SDS011;27813;43.516;11.890;2023-05-10T22:37:42;3.63;;;1.52;;
42144;SDS011;27813;43.516;11.890;2023-05-10T22:41:47;3.42;;;1.15;;
42144;SDS011;27813;43.516;11.890;2023-05-10T22:49:55;5.43;;;1.30;;
42144;SDS011;27813;43.516;11.890;2023-05-10T22:54:00;2.78;;;1.25;;
42144;SDS011;27813;43.516;11.890;2023-05-10T23:02:09;3.72;;;0.98;;
42144;SDS011;27813;43.516;11.890;2023-05-10T23:06:13;5.63;;;1.20;;
42144;SDS011;27813;43.516;11.890;2023-05-10T23:10:18;2.65;;;1.20;;
42144;SDS011;27813;43.516;11.890;2023-05-10T23:14:22;4.57;;;1.30;;
42144;SDS011;27813;43.516;11.890;2023-05-10T23:18:27;3.90;;;1.10;;
42144;SDS011;27813;43.516;11.890;2023-05-10T23:26:35;2.63;;;1.30;;
